Time;durP1;ratioP1;P1;durP2;ratioP2;P2;SDS_P1;SDS_P2;PMS_P1;PMS_P2;Temp;Humidity;BMP_temperature;BMP_pressure;BME280_temperature;BME280_humidity;BME280_pressure;Samples;Min_cycle;Max_cycle;Signal;HPM_P1;HPM_P2
2024/01/15 00:06:21;;;;;;;4.80;1.85;;;0.10;99.90;;;;;;20935285;28;20089;-43
2024/01/15 00:16:23;;;;;;;2.70;1.63;;;1.20;99.90;;;;;;20945756;28;20568;-44
2024/01/15 00:26:25;;;;;;;12.05;6.07;;;1.50;99.90;;;;;;20976215;28;20032;-46
2024/01/15 00:36:27;;;;;;;4.95;2.83;;;0.90;99.90;;;;;;20974567;28;20573;-45
2024/01/15 00:46:29;;;;;;;11.80;6.75;;;0.70;99.90;;;;;;20974988;28;20044;-45
2024/01/15 00:56:30;;;;;;;9.95;5.78;;;0.30;99.90;;;;;;20929756;28;20563;-46
2024/01/15 01:06:32;;;;;;;7.82;4.47;;;-0.30;99.90;;;;;;20972872;28;20485;-46
2024/01/15 01:16:38;;;;;;;8.48;5.22;;;0.10;99.90;;;;;;20958073;28;20044;-45
2024/01/15 01:26:40;;;;;;;4.22;2.08;;;0.10;99.90;;;;;;20934404;28;20566;-45
2024/01/15 01:36:43;;;;;;;2.40;1.55;;;-0.20;99.90;;;;;;20952020;28;20141;-49
2024/01/15 01:46:48;;;;;;;4.13;1.58;;;1.30;99.90;;;;;;20960616;28;20040;-46
2024/01/15 01:56:51;;;;;;;3.78;1.15;;;1.40;99.90;;;;;;20930269;28;20041;-44
2024/01/15 02:06:53;;;;;;;3.40;1.77;;;1.40;99.90;;;;;;20947962;28;20816;-47
2024/01/15 02:16:54;;;;;;;4.47;1.38;;;1.50;99.90;;;;;;20944610;28;20037;-42
2024/01/15 02:26:56;;;;;;;4.32;1.65;;;1.30;99.90;;;;;;20942356;28;20272;-45
2024/01/15 02:36:58;;;;;;;3.80;1.98;;;0.60;99.90;;;;;;20972074;28;20047;-47
2024/01/15 02:47:00;;;;;;;4.57;2.50;;;0.70;99.90;;;;;;20985085;28;20125;-48
2024/01/15 02:57:01;;;;;;;2.10;1.38;;;1.00;99.90;;;;;;20981960;28;20074;-43
2024/01/15 03:07:03;;;;;;;5.95;3.33;;;1.30;99.90;;;;;;20963868;28;20040;-43
2024/01/15 03:17:05;;;;;;;4.55;2.10;;;1.40;99.90;;;;;;20982324;28;20043;-44
2024/01/15 03:27:07;;;;;;;6.45;1.77;;;0.50;99.90;;;;;;20970718;28;20044;-44
2024/01/15 03:37:09;;;;;;;3.63;1.00;;;0.60;99.90;;;;;;20981961;28;20052;-48
2024/01/15 03:47:11;;;;;;;5.47;2.72;;;1.10;99.90;;;;;;20961894;28;20032;-41
2024/01/15 03:57:12;;;;;;;4.93;3.00;;;0.60;99.90;;;;;;20979993;28;21207;-44
2024/01/15 04:07:14;;;;;;;6.10;3.30;;;0.20;99.90;;;;;;20982126;28;20036;-42
2024/01/15 04:17:17;;;;;;;7.13;3.70;;;-0.30;99.90;;;;;;20979276;28;20096;-46
2024/01/15 04:27:19;;;;;;;8.90;4.35;;;-1.10;99.90;;;;;;20981660;28;20109;-43
2024/01/15 04:37:21;;;;;;;8.10;4.05;;;-1.30;99.90;;;;;;20961414;28;20138;-48
2024/01/15 04:47:23;;;;;;;8.85;3.70;;;-1.60;99.90;;;;;;20933595;28;21216;-47
2024/01/15 04:57:25;;;;;;;7.10;3.40;;;-2.10;99.90;;;;;;20935868;28;20069;-45
2024/01/15 05:07:26;;;;;;;7.63;4.65;;;-2.40;99.90;;;;;;20949658;28;20089;-42
2024/01/15 05:17:28;;;;;;;10.70;4.57;;;-2.60;99.90;;;;;;20949560;28;20040;-44
2024/01/15 05:27:30;;;;;;;8.73;4.65;;;-2.80;99.90;;;;;;20960858;28;20039;-44
2024/01/15 05:37:32;;;;;;;9.60;4.60;;;-2.90;99.90;;;;;;20974340;28;20048;-40
2024/01/15 05:47:34;;;;;;;9.77;5.05;;;-3.10;99.90;;;;;;20986580;28;20036;-46
2024/01/15 05:57:37;;;;;;;8.20;4.32;;;-3.10;99.90;;;;;;20987477;28;20040;-45
2024/01/15 06:07:39;;;;;;;11.60;5.32;;;-3.20;99.90;;;;;;20984768;28;20044;-42
2024/01/15 06:17:40;;;;;;;8.27;4.88;;;-3.20;99.90;;;;;;20981768;28;20040;-42
2024/01/15 06:27:42;;;;;;;8.52;4.65;;;-3.20;99.90;;;;;;20982517;28;20036;-42
2024/01/15 06:37:44;;;;;;;8.13;4.15;;;-3.20;99.90;;;;;;20981368;28;20055;-42
2024/01/15 06:47:46;;;;;;;9.13;4.65;;;-3.20;99.90;;;;;;20980883;28;20036;-42
2024/01/15 06:57:48;;;;;;;8.88;4.70;;;-3.00;99.90;;;;;;20978880;28;20028;-43
2024/01/15 07:07:50;;;;;;;7.38;4.50;;;-2.90;99.90;;;;;;20960680;28;20191;-44
2024/01/15 07:17:52;;;;;;;7.70;3.83;;;-2.70;99.90;;;;;;20979836;28;21118;-47
2024/01/15 07:27:54;;;;;;;7.75;4.32;;;-2.60;99.90;;;;;;20979520;28;20036;-43
2024/01/15 07:37:56;;;;;;;8.70;3.95;;;-2.50;99.90;;;;;;20949435;28;20056;-43
2024/01/15 07:47:57;;;;;;;9.70;5.00;;;-2.50;99.90;;;;;;20936180;28;20045;-42
2024/01/15 07:57:59;;;;;;;6.95;3.80;;;-2.50;99.90;;;;;;20942765;28;20043;-43
2024/01/15 08:08:03;;;;;;;7.35;4.30;;;-2.50;99.90;;;;;;20935270;28;20052;-44
2024/01/15 08:18:05;;;;;;;8.40;4.32;;;-2.00;99.90;;;;;;20950773;28;20044;-45
2024/01/15 08:28:08;;;;;;;7.75;4.10;;;-1.00;99.90;;;;;;20949329;28;20040;-46
2024/01/15 08:38:10;;;;;;;8.20;4.75;;;0.00;99.90;;;;;;20954958;28;20052;-44
2024/01/15 08:48:12;;;;;;;9.30;5.07;;;1.20;99.90;;;;;;20947133;28;20065;-49
2024/01/15 08:58:14;;;;;;;7.50;4.13;;;1.60;99.90;;;;;;20945035;28;20125;-47
2024/01/15 09:08:16;;;;;;;7.25;4.50;;;2.10;99.90;;;;;;20953486;28;20096;-44
2024/01/15 09:18:17;;;;;;;8.32;3.97;;;2.40;99.90;;;;;;20945772;28;21211;-45
2024/01/15 09:28:19;;;;;;;6.85;4.00;;;2.80;99.90;;;;;;20943708;28;20156;-42
2024/01/15 09:38:21;;;;;;;10.98;4.35;;;3.10;99.90;;;;;;20974372;28;20106;-44
2024/01/15 09:48:23;;;;;;;9.98;5.03;;;3.30;99.90;;;;;;20986258;28;20044;-43
2024/01/15 09:58:25;;;;;;;6.93;4.80;;;3.70;99.90;;;;;;20984785;28;20036;-50
2024/01/15 10:08:27;;;;;;;7.82;4.95;;;3.90;99.90;;;;;;20984440;28;20044;-45
2024/01/15 10:18:29;;;;;;;8.05;5.10;;;4.00;99.90;;;;;;20984836;28;20044;-46
2024/01/15 10:28:32;;;;;;;10.27;6.10;;;4.10;99.90;;;;;;20982748;28;20044;-45
2024/01/15 10:38:34;;;;;;;11.00;5.97;;;4.30;99.90;;;;;;20958853;28;20225;-48
2024/01/15 10:48:36;;;;;;;12.30;6.43;;;4.20;99.90;;;;;;20926553;28;20133;-45
2024/01/15 10:58:40;;;;;;;10.43;6.80;;;4.50;99.90;;;;;;20944761;28;20052;-43
2024/01/15 11:08:42;;;;;;;11.32;7.35;;;4.90;99.90;;;;;;20929286;28;20036;-44
2024/01/15 11:18:57;;;;;;;12.38;7.85;;;5.40;99.90;;;;;;20936202;28;20078;-42
2024/01/15 11:29:02;;;;;;;13.27;6.97;;;5.40;99.90;;;;;;20933031;28;20037;-43
2024/01/15 11:39:26;;;;;;;9.52;6.80;;;5.10;99.90;;;;;;20968038;28;20056;-46
2024/01/15 11:49:37;;;;;;;10.98;6.95;;;4.90;99.90;;;;;;20976136;28;20040;-42
2024/01/15 11:59:41;;;;;;;12.38;7.18;;;5.00;99.90;;;;;;20993591;28;20062;-43
2024/01/15 12:09:45;;;;;;;10.95;6.85;;;5.10;99.90;;;;;;20990350;28;20089;-43
2024/01/15 12:19:47;;;;;;;11.52;7.47;;;4.80;99.90;;;;;;20990725;28;20054;-44
2024/01/15 12:29:49;;;;;;;12.60;8.15;;;5.10;99.90;;;;;;20992068;28;20039;-44
2024/01/15 12:39:54;;;;;;;11.75;7.55;;;4.90;99.90;;;;;;20899276;28;20048;-46
2024/01/15 12:50:00;;;;;;;13.13;8.63;;;5.10;99.90;;;;;;20906678;28;20104;-44
2024/01/15 13:00:12;;;;;;;13.75;8.02;;;5.00;99.90;;;;;;20906079;28;20040;-43
2024/01/15 13:10:13;;;;;;;10.85;7.20;;;5.40;99.90;;;;;;20905239;28;20044;-43
2024/01/15 13:20:15;;;;;;;15.45;9.85;;;5.20;99.90;;;;;;20904829;28;20098;-44
2024/01/15 13:30:17;;;;;;;12.27;7.75;;;4.80;99.90;;;;;;20905937;28;20098;-48
2024/01/15 13:40:19;;;;;;;17.70;11.25;;;3.90;99.90;;;;;;20938364;28;20052;-43
2024/01/15 13:50:22;;;;;;;17.13;10.98;;;4.30;99.90;;;;;;20942959;28;20133;-44
2024/01/15 14:00:23;;;;;;;16.42;10.50;;;3.80;99.90;;;;;;20949852;28;20937;-43
2024/01/15 14:10:25;;;;;;;18.13;11.88;;;3.00;99.90;;;;;;20942518;28;20044;-44
2024/01/15 14:20:27;;;;;;;12.93;7.13;;;2.70;99.90;;;;;;20941218;28;20062;-43
2024/01/15 14:30:29;;;;;;;9.75;6.20;;;2.90;99.90;;;;;;20940206;28;20029;-49
2024/01/15 14:40:30;;;;;;;15.52;9.52;;;3.30;99.90;;;;;;20978631;28;20140;-44
2024/01/15 14:50:33;;;;;;;12.68;7.82;;;3.50;99.90;;;;;;20979801;28;20044;-46
2024/01/15 15:00:35;;;;;;;15.07;9.00;;;2.90;99.90;;;;;;20981199;28;20043;-45
2024/01/15 15:10:37;;;;;;;12.07;8.00;;;2.80;99.90;;;;;;20978723;28;20035;-44
2024/01/15 15:20:38;;;;;;;11.60;6.43;;;2.60;99.90;;;;;;20977272;28;20036;-44
2024/01/15 15:30:40;;;;;;;15.10;8.40;;;1.90;99.90;;;;;;20980097;28;20451;-42
2024/01/15 15:40:44;;;;;;;16.02;9.75;;;1.50;99.90;;;;;;20933071;28;20056;-46
2024/01/15 15:50:47;;;;;;;12.50;6.32;;;1.00;99.90;;;;;;20942478;28;20037;-42
2024/01/15 16:00:48;;;;;;;9.85;5.28;;;0.70;99.90;;;;;;20943796;28;20040;-43
2024/01/15 16:10:51;;;;;;;9.77;5.40;;;1.20;99.90;;;;;;20938410;28;20075;-45
2024/01/15 16:20:53;;;;;;;9.50;5.03;;;0.80;99.90;;;;;;20939838;28;20129;-45
2024/01/15 16:30:55;;;;;;;10.68;5.75;;;0.90;99.90;;;;;;20925508;28;21794;-44
2024/01/15 16:40:56;;;;;;;7.88;4.90;;;0.90;99.90;;;;;;20932885;28;20074;-43
2024/01/15 16:50:58;;;;;;;9.85;4.80;;;0.70;99.90;;;;;;20963829;28;20040;-43
2024/01/15 17:01:00;;;;;;;7.93;4.65;;;0.50;99.90;;;;;;20976032;28;20113;-44
2024/01/15 17:11:02;;;;;;;7.72;4.50;;;0.20;99.90;;;;;;20931671;28;20097;-43
2024/01/15 17:21:06;;;;;;;8.77;4.60;;;0.00;99.90;;;;;;20925299;28;20040;-43
2024/01/15 17:31:12;;;;;;;8.98;4.90;;;-0.30;99.90;;;;;;20930072;28;20060;-42
2024/01/15 17:41:14;;;;;;;9.88;5.07;;;-0.40;99.90;;;;;;20907319;28;20475;-44
2024/01/15 17:51:19;;;;;;;8.20;4.63;;;-0.50;99.90;;;;;;20906156;28;20917;-44
2024/01/15 18:01:21;;;;;;;12.50;6.13;;;-0.70;99.90;;;;;;20901094;28;20036;-44
2024/01/15 18:11:22;;;;;;;7.68;4.47;;;-1.00;99.90;;;;;;20877355;28;20036;-44
2024/01/15 18:21:26;;;;;;;18.00;10.02;;;-1.10;99.90;;;;;;20885991;28;20040;-43
2024/01/15 18:31:28;;;;;;;9.82;5.28;;;-1.10;99.90;;;;;;20868525;28;20052;-43
2024/01/15 18:41:30;;;;;;;12.07;6.68;;;-1.20;99.90;;;;;;20944812;28;20040;-47
2024/01/15 18:51:31;;;;;;;9.38;4.95;;;-1.30;99.90;;;;;;20927011;28;20098;-43
2024/01/15 19:01:33;;;;;;;7.05;3.67;;;-1.40;99.90;;;;;;20962331;28;20350;-43
2024/01/15 19:11:35;;;;;;;5.78;3.22;;;-1.40;99.90;;;;;;20925057;28;20048;-45
2024/01/15 19:21:36;;;;;;;4.70;2.33;;;-1.10;99.90;;;;;;20936417;28;20089;-44
2024/01/15 19:31:38;;;;;;;3.55;1.90;;;-1.00;99.90;;;;;;20932635;28;20102;-47
2024/01/15 19:41:40;;;;;;;5.20;2.35;;;-1.00;99.90;;;;;;20959315;28;20485;-46
2024/01/15 19:51:49;;;;;;;7.13;4.32;;;-1.30;99.90;;;;;;20925926;28;20044;-44
2024/01/15 20:01:51;;;;;;;5.35;2.25;;;-1.60;99.90;;;;;;20956136;28;20489;-42
2024/01/15 20:11:53;;;;;;;4.45;2.42;;;-1.70;99.90;;;;;;20962237;28;20808;-47
2024/01/15 20:21:54;;;;;;;4.03;2.20;;;-1.70;99.90;;;;;;20971090;28;20048;-42
2024/01/15 20:31:56;;;;;;;4.80;2.97;;;-1.90;99.90;;;;;;20960546;28;20101;-45
2024/01/15 20:41:58;;;;;;;5.82;3.40;;;-2.00;99.90;;;;;;20971013;28;20047;-47
2024/01/15 20:52:00;;;;;;;5.90;3.00;;;-2.00;99.90;;;;;;20952172;28;21096;-48
2024/01/15 21:02:02;;;;;;;5.35;2.80;;;-2.00;99.90;;;;;;20942316;28;20040;-44
2024/01/15 21:12:05;;;;;;;6.15;1.88;;;-1.90;99.90;;;;;;20945241;28;20047;-45
2024/01/15 21:22:07;;;;;;;3.83;1.75;;;-1.80;99.90;;;;;;20949331;28;20086;-44
2024/01/15 21:32:09;;;;;;;2.42;1.48;;;-2.00;99.90;;;;;;20918117;28;20056;-43
2024/01/15 21:42:11;;;;;;;2.63;1.13;;;-2.10;99.90;;;;;;20989580;28;20435;-42
2024/01/15 21:52:13;;;;;;;3.45;1.60;;;-2.30;99.90;;;;;;20989858;28;20067;-46
2024/01/15 22:02:15;;;;;;;2.95;1.40;;;-2.50;99.90;;;;;;20989050;28;20084;-44
2024/01/15 22:12:16;;;;;;;2.53;1.48;;;-2.70;99.90;;;;;;20989036;28;20489;-42
2024/01/15 22:22:19;;;;;;;2.60;1.42;;;-2.70;99.90;;;;;;20987871;28;20040;-45
2024/01/15 22:32:20;;;;;;;2.47;1.50;;;-2.60;99.90;;;;;;20978737;28;20680;-42
2024/01/15 22:42:22;;;;;;;4.70;1.80;;;-2.70;99.90;;;;;;20928008;28;20043;-43
2024/01/15 22:52:24;;;;;;;3.10;1.35;;;-2.70;99.90;;;;;;20964667;28;20036;-44
2024/01/15 23:02:25;;;;;;;3.28;1.40;;;-2.90;99.90;;;;;;20906855;28;20036;-45
2024/01/15 23:12:27;;;;;;;3.42;1.50;;;-2.90;99.90;;;;;;20951073;28;20055;-42
2024/01/15 23:22:29;;;;;;;2.85;1.70;;;-3.00;99.90;;;;;;20924994;28;20095;-43
2024/01/15 23:32:31;;;;;;;3.75;1.80;;;-3.10;99.90;;;;;;20926553;28;20102;-45
2024/01/15 23:42:33;;;;;;;2.65;0.85;;;-2.90;99.90;;;;;;20973698;28;20550;-44
2024/01/15 23:52:37;;;;;;;3.83;1.58;;;-2.80;99.90;;;;;;20976246;28;20189;-42
